createdAt,value
2022-09-02T00:01:20.053Z,89.22
2022-09-02T00:06:17.732Z,89.32
2022-09-02T00:11:15.320Z,90.17
2022-09-02T00:16:11.029Z,90.70
2022-09-02T00:21:07.426Z,91.25
2022-09-02T00:26:05.061Z,91.50
2022-09-02T00:30:58.893Z,92.19
2022-09-02T00:35:52.231Z,92.20
2022-09-02T00:40:48.136Z,92.73
2022-09-02T00:45:43.284Z,92.90
2022-09-02T00:50:39.671Z,93.30
2022-09-02T00:55:37.836Z,93.01
2022-09-02T01:00:34.957Z,92.63
2022-09-02T01:05:33.358Z,92.33
2022-09-02T01:10:29.510Z,91.88
2022-09-02T01:15:22.772Z,91.31
2022-09-02T01:20:19.246Z,90.72
2022-09-02T01:25:18.228Z,90.50
2022-09-02T01:30:14.465Z,90.23
2022-09-02T01:35:08.870Z,90.21
2022-09-02T01:40:02.606Z,90.20
2022-09-02T01:44:57.503Z,89.95
2022-09-02T01:49:51.804Z,89.87
2022-09-02T01:54:46.642Z,89.01
2022-09-02T01:59:40.377Z,88.36
2022-09-02T02:04:35.221Z,88.07
2022-09-02T02:09:31.707Z,87.17
2022-09-02T02:14:25.562Z,86.89
2022-09-02T02:19:19.758Z,84.62
2022-09-02T02:24:16.259Z,83.39
2022-09-02T02:29:10.000Z,82.40
2022-09-02T02:34:05.009Z,80.40
2022-09-02T02:39:01.625Z,79.69
2022-09-02T02:44:00.332Z,78.97
2022-09-02T02:48:56.549Z,78.95
2022-09-02T02:53:49.945Z,78.13
2022-09-02T02:58:45.296Z,77.44
2022-09-02T03:03:40.222Z,77.79
2022-09-02T03:08:35.388Z,77.17
2022-09-02T03:13:29.449Z,77.38
2022-09-02T03:18:26.907Z,77.57
2022-09-02T03:23:21.804Z,77.18
2022-09-02T03:28:20.283Z,76.88
2022-09-02T03:33:14.299Z,77.26
2022-09-02T03:38:09.252Z,77.46
2022-09-02T03:43:05.210Z,77.46
2022-09-02T03:48:01.514Z,77.51
2022-09-02T03:53:00.771Z,77.52
2022-09-02T03:57:55.099Z,76.83
2022-09-02T04:02:55.449Z,76.05
2022-09-02T04:07:51.516Z,75.18
2022-09-02T04:12:45.315Z,74.61
2022-09-02T04:17:41.613Z,73.44
2022-09-02T04:22:40.688Z,72.89
2022-09-02T04:27:34.329Z,72.36
2022-09-02T04:32:29.563Z,72.17
2022-09-02T04:37:24.754Z,72.31
2022-09-02T04:42:22.449Z,71.15
2022-09-02T04:47:16.003Z,70.04
2022-09-02T04:52:10.792Z,70.20
2022-09-02T04:57:06.322Z,70.11
2022-09-02T05:02:02.331Z,69.32
2022-09-02T05:12:41.272Z,68.42
2022-09-02T05:18:04.559Z,67.85
2022-09-02T05:22:59.365Z,68.26
2022-09-02T05:27:52.713Z,68.05
2022-09-02T05:32:50.013Z,68.36
2022-09-02T05:37:49.342Z,67.41
2022-09-02T05:42:43.851Z,66.15
2022-09-02T05:47:39.997Z,66.15
2022-09-02T05:52:37.037Z,64.26
2022-09-02T05:57:46.405Z,62.21
2022-09-02T06:02:42.800Z,61.53
2022-09-02T06:07:57.932Z,60.04
2022-09-02T06:12:51.931Z,59.42
2022-09-02T06:17:49.414Z,60.16
2022-09-02T06:22:43.354Z,59.03
2022-09-02T06:27:42.144Z,58.40
2022-09-02T06:32:36.702Z,58.26
2022-09-02T06:37:36.605Z,58.01
2022-09-02T06:42:30.365Z,57.31
2022-09-02T06:47:41.019Z,57.14
2022-09-02T06:52:36.178Z,57.47
2022-09-02T06:57:34.125Z,57.20
2022-09-02T07:02:32.362Z,56.76
2022-09-02T07:07:28.921Z,56.84
2022-09-02T07:12:33.069Z,56.16
2022-09-02T07:17:33.625Z,56.52
2022-09-02T07:22:31.828Z,55.51
2022-09-02T07:27:28.318Z,55.58
2022-09-02T07:32:23.503Z,56.34
2022-09-02T07:37:16.787Z,55.66
2022-09-02T07:42:11.580Z,54.91
2022-09-02T07:47:06.520Z,55.23
2022-09-02T07:52:02.591Z,55.39
2022-09-02T07:56:57.510Z,56.06
2022-09-02T08:01:54.769Z,55.09
2022-09-02T08:06:50.712Z,55.87
2022-09-02T08:11:47.871Z,55.96
2022-09-02T08:16:44.939Z,55.46
2022-09-02T08:21:41.812Z,55.43
2022-09-02T08:26:37.299Z,54.12
2022-09-02T08:31:32.187Z,53.86
2022-09-02T08:36:25.770Z,52.97
2022-09-02T08:41:23.986Z,52.02
2022-09-02T08:46:19.317Z,50.48
2022-09-02T08:51:19.497Z,50.33
2022-09-02T08:56:17.128Z,50.31
2022-09-02T09:01:20.055Z,48.92
2022-09-02T09:06:19.854Z,49.48
2022-09-02T09:11:21.156Z,49.18
2022-09-02T09:16:26.300Z,49.38
2022-09-02T09:26:23.031Z,48.75
2022-09-02T09:31:19.943Z,48.95
2022-09-02T09:36:14.298Z,48.17
2022-09-02T09:41:29.153Z,47.14
2022-09-02T09:46:28.898Z,46.93
2022-09-02T09:51:22.495Z,46.65
2022-09-02T09:56:30.618Z,45.38
2022-09-02T10:01:31.159Z,46.90
2022-09-02T10:06:37.148Z,46.19
2022-09-02T10:11:32.436Z,45.73
2022-09-02T10:16:45.143Z,45.04
2022-09-02T10:21:58.316Z,45.72
2022-09-02T10:26:56.121Z,45.95
2022-09-02T10:32:00.873Z,45.33
2022-09-02T10:37:09.880Z,44.88
2022-09-02T10:42:10.745Z,45.80
2022-09-02T10:47:11.688Z,46.09
2022-09-02T10:52:13.724Z,45.86
2022-09-02T10:57:13.027Z,44.87
2022-09-02T11:02:15.346Z,44.71
2022-09-02T11:07:14.415Z,44.99
2022-09-02T11:12:13.490Z,45.17
2022-09-02T11:17:15.837Z,44.91
2022-09-02T11:22:27.267Z,45.31
2022-09-02T11:27:41.683Z,44.45
2022-09-02T11:32:47.315Z,44.76
2022-09-02T11:37:45.242Z,44.95
2022-09-02T11:42:54.538Z,44.55
2022-09-02T11:48:14.252Z,44.16
2022-09-02T11:53:21.670Z,44.08
2022-09-02T11:58:32.910Z,43.61
2022-09-02T12:03:58.447Z,43.19
2022-09-02T12:09:07.903Z,42.37
2022-09-02T12:14:04.493Z,45.51
2022-09-02T12:19:27.745Z,47.52
2022-09-02T12:24:22.423Z,48.76
2022-09-02T12:29:35.260Z,49.44
2022-09-02T12:35:07.961Z,51.43
2022-09-02T12:40:13.983Z,53.00
2022-09-02T12:45:13.264Z,54.01
2022-09-02T12:50:12.954Z,55.54
2022-09-02T12:55:12.288Z,57.29
2022-09-02T13:00:05.639Z,57.07
2022-09-02T13:05:19.731Z,65.69
2022-09-02T13:10:46.245Z,72.72
2022-09-02T13:16:02.977Z,80.11
2022-09-02T13:21:19.737Z,83.20
2022-09-02T13:26:53.521Z,87.17
2022-09-02T13:32:01.624Z,90.83
2022-09-02T13:36:56.194Z,93.83
2022-09-02T13:41:49.545Z,96.08
2022-09-02T13:46:48.752Z,98.23
2022-09-02T13:51:45.476Z,100.00
2022-09-02T13:56:40.360Z,100.00
2022-09-02T14:01:40.614Z,100.00
2022-09-02T14:06:38.684Z,98.84
2022-09-02T14:11:48.192Z,99.10
2022-09-02T14:16:45.519Z,99.33
2022-09-02T14:21:46.057Z,100.00
2022-09-02T14:26:44.337Z,100.00
2022-09-02T14:31:38.065Z,100.00
2022-09-02T14:36:38.346Z,100.00
2022-09-02T14:41:39.241Z,100.00
2022-09-02T14:46:40.606Z,100.00
2022-09-02T14:51:42.587Z,100.00
2022-09-02T14:56:52.351Z,100.00
2022-09-02T15:01:51.931Z,100.00
2022-09-02T15:06:48.014Z,100.00
2022-09-02T15:12:27.508Z,100.00
2022-09-02T15:17:25.189Z,100.00
2022-09-02T15:22:36.775Z,100.00
2022-09-02T15:27:34.743Z,100.00
2022-09-02T15:32:43.223Z,100.00
2022-09-02T15:38:26.352Z,100.00
2022-09-02T15:43:31.269Z,100.00
2022-09-02T15:48:26.411Z,100.00
2022-09-02T15:53:20.014Z,100.00
2022-09-02T15:58:13.832Z,100.00
2022-09-02T16:03:12.093Z,100.00
2022-09-02T16:08:05.685Z,100.00
2022-09-02T16:13:00.838Z,100.00
2022-09-02T16:17:54.389Z,100.00
2022-09-02T16:23:01.369Z,100.00
2022-09-02T16:27:57.299Z,100.00
2022-09-02T16:32:51.818Z,100.00
2022-09-02T16:37:45.431Z,100.00
2022-09-02T16:42:40.295Z,100.00
2022-09-02T16:47:33.972Z,100.00
2022-09-02T16:52:27.181Z,100.00
2022-09-02T16:57:23.408Z,100.00
2022-09-02T17:02:25.575Z,100.00
2022-09-02T17:07:21.572Z,100.00
2022-09-02T17:12:21.376Z,100.00
2022-09-02T17:17:19.694Z,100.00
2022-09-02T17:22:14.794Z,100.00
2022-09-02T17:27:08.354Z,100.00
2022-09-02T17:32:04.181Z,100.00
2022-09-02T17:37:04.378Z,100.00
2022-09-02T17:41:59.871Z,100.00
2022-09-02T17:47:01.129Z,100.00
2022-09-02T17:51:55.430Z,100.00
2022-09-02T17:57:10.133Z,100.00
2022-09-02T18:02:44.106Z,100.00
2022-09-02T18:07:49.894Z,100.00
2022-09-02T18:12:45.555Z,100.00
2022-09-02T18:17:52.259Z,100.00
2022-09-02T18:23:13.492Z,100.00
2022-09-02T18:28:44.970Z,100.00
2022-09-02T18:34:02.618Z,100.00
2022-09-02T18:39:21.319Z,100.00
2022-09-02T18:44:39.305Z,100.00
2022-09-02T18:49:38.388Z,100.00
2022-09-02T18:54:47.302Z,100.00
2022-09-02T19:00:20.472Z,100.00
2022-09-02T19:05:27.270Z,100.00
2022-09-02T19:10:28.054Z,100.00
2022-09-02T19:15:25.288Z,100.00
2022-09-02T19:20:19.184Z,100.00
2022-09-02T19:25:22.121Z,100.00
2022-09-02T19:30:29.231Z,100.00
2022-09-02T19:35:27.922Z,100.00
2022-09-02T19:40:48.753Z,100.00
2022-09-02T19:45:42.322Z,100.00
2022-09-02T19:50:45.054Z,100.00
2022-09-02T19:55:39.210Z,100.00
2022-09-02T20:00:35.346Z,100.00
2022-09-02T20:05:31.382Z,100.00
2022-09-02T20:10:28.000Z,100.00
2022-09-02T20:15:26.223Z,100.00
2022-09-02T20:20:24.011Z,100.00
2022-09-02T20:25:17.702Z,100.00
2022-09-02T20:30:19.287Z,100.00
2022-09-02T20:35:38.720Z,100.00
2022-09-02T20:40:59.231Z,100.00
2022-09-02T20:45:58.746Z,100.00
2022-09-02T20:51:01.678Z,100.00
2022-09-02T20:56:00.656Z,100.00
2022-09-02T21:01:06.774Z,100.00
2022-09-02T21:06:03.112Z,100.00
2022-09-02T21:11:08.765Z,100.00
2022-09-02T21:16:11.383Z,100.00
2022-09-02T21:21:11.740Z,100.00
2022-09-02T21:26:11.683Z,100.00
2022-09-02T21:31:15.488Z,100.00
2022-09-02T21:36:13.421Z,100.00
2022-09-02T21:41:27.320Z,100.00
2022-09-02T21:46:31.277Z,100.00
2022-09-02T21:51:33.862Z,100.00
2022-09-02T21:56:44.410Z,100.00
2022-09-02T22:01:51.145Z,100.00
2022-09-02T22:06:48.830Z,100.00
2022-09-02T22:11:50.577Z,100.00
2022-09-02T22:16:59.138Z,100.00
2022-09-02T22:22:02.511Z,100.00
2022-09-02T22:27:02.517Z,100.00
2022-09-02T22:31:59.857Z,100.00
2022-09-02T22:36:58.478Z,100.00
2022-09-02T22:41:58.926Z,100.00
2022-09-02T22:47:13.548Z,100.00
2022-09-02T22:52:34.578Z,100.00
2022-09-02T22:57:39.425Z,100.00
2022-09-02T23:02:39.352Z,100.00
2022-09-02T23:07:32.992Z,100.00
2022-09-02T23:12:33.918Z,100.00
2022-09-02T23:17:36.580Z,100.00
2022-09-02T23:22:45.194Z,100.00
2022-09-02T23:27:45.226Z,100.00
2022-09-02T23:33:02.323Z,100.00
2022-09-02T23:38:21.761Z,100.00
2022-09-02T23:43:18.496Z,100.00
2022-09-02T23:48:31.738Z,100.00
2022-09-02T23:53:32.701Z,100.00
2022-09-02T23:58:41.327Z,100.00
